sensor_id;sensor_type;location;lat;lon;timestamp;pressure;altitude;pressure_sealevel;temperature;humidity
27685;BME280;46113;50.130;8.526;2022-09-13T04:16:03;99586.63;;;10.77;73.66
27685;BME280;46113;50.130;8.526;2022-09-13T04:18:30;99584.84;;;10.78;73.61
27685;BME280;46113;50.130;8.526;2022-09-13T04:20:58;99581.31;;;10.77;74.36
27685;BME280;46113;50.130;8.526;2022-09-13T04:23:27;99584.75;;;10.79;73.64
27685;BME280;46113;50.130;8.526;2022-09-13T04:25:54;99583.13;;;10.77;74.01
27685;BME280;46113;50.130;8.526;2022-09-13T04:28:21;99589.09;;;10.80;73.82
27685;BME280;46113;50.130;8.526;2022-09-13T04:30:48;99583.81;;;10.80;74.38
27685;BME280;46113;50.130;8.526;2022-09-13T04:33:16;99591.75;;;10.80;73.81
27685;BME280;46113;50.130;8.526;2022-09-13T04:35:43;99589.94;;;10.81;74.26
27685;BME280;46113;50.130;8.526;2022-09-13T04:38:10;99597.81;;;10.82;73.39
27685;BME280;46113;50.130;8.526;2022-09-13T04:40:39;99601.13;;;10.86;73.07
27685;BME280;46113;50.130;8.526;2022-09-13T04:43:06;99600.38;;;10.84;73.71
27685;BME280;46113;50.130;8.526;2022-09-13T04:45:32;99591.50;;;10.85;73.46
27685;BME280;46113;50.130;8.526;2022-09-13T04:48:01;99605.59;;;10.85;73.72
27685;BME280;46113;50.130;8.526;2022-09-13T04:50:28;99607.22;;;10.88;73.83
27685;BME280;46113;50.130;8.526;2022-09-13T04:52:56;99602.88;;;10.87;72.87
27685;BME280;46113;50.130;8.526;2022-09-13T04:55:22;99604.50;;;10.90;72.70
27685;BME280;46113;50.130;8.526;2022-09-13T04:57:54;99600.13;;;10.88;73.09
27685;BME280;46113;50.130;8.526;2022-09-13T05:00:22;99600.03;;;10.90;73.17
27685;BME280;46113;50.130;8.526;2022-09-13T05:02:54;99616.72;;;10.92;72.59
27685;BME280;46113;50.130;8.526;2022-09-13T05:05:22;99614.69;;;10.97;73.63
27685;BME280;46113;50.130;8.526;2022-09-13T05:07:49;99614.06;;;10.92;74.73
27685;BME280;46113;50.130;8.526;2022-09-13T05:10:16;99613.06;;;10.95;74.72
27685;BME280;46113;50.130;8.526;2022-09-13T05:12:45;99619.13;;;10.97;73.46
27685;BME280;46113;50.130;8.526;2022-09-13T05:15:11;99618.19;;;10.98;74.15
27685;BME280;46113;50.130;8.526;2022-09-13T05:17:38;99617.13;;;10.84;75.72
27685;BME280;46113;50.130;8.526;2022-09-13T05:20:05;99618.28;;;10.96;75.88
27685;BME280;46113;50.130;8.526;2022-09-13T05:22:32;99624.81;;;11.07;74.13
27685;BME280;46113;50.130;8.526;2022-09-13T05:24:58;99617.34;;;11.13;73.67
27685;BME280;46113;50.130;8.526;2022-09-13T05:27:25;99621.72;;;11.14;72.85
27685;BME280;46113;50.130;8.526;2022-09-13T05:29:52;99628.38;;;11.22;73.46
27685;BME280;46113;50.130;8.526;2022-09-13T05:32:18;99628.22;;;11.25;72.71
27685;BME280;46113;50.130;8.526;2022-09-13T05:34:45;99623.00;;;11.23;73.33
27685;BME280;46113;50.130;8.526;2022-09-13T05:37:11;99624.72;;;11.24;72.91
27685;BME280;46113;50.130;8.526;2022-09-13T05:39:38;99632.31;;;11.31;73.80
27685;BME280;46113;50.130;8.526;2022-09-13T05:42:27;99637.28;;;11.37;74.17
27685;BME280;46113;50.130;8.526;2022-09-13T05:44:53;99644.88;;;11.27;74.91
27685;BME280;46113;50.130;8.526;2022-09-13T05:47:24;99646.69;;;11.43;74.05
27685;BME280;46113;50.130;8.526;2022-09-13T05:49:51;99641.81;;;11.51;72.95
27685;BME280;46113;50.130;8.526;2022-09-13T05:52:36;99651.91;;;11.60;73.37
27685;BME280;46113;50.130;8.526;2022-09-13T05:55:02;99645.47;;;11.64;72.85
27685;BME280;46113;50.130;8.526;2022-09-13T05:57:29;99640.16;;;11.64;73.20
27685;BME280;46113;50.130;8.526;2022-09-13T06:00:00;99645.16;;;11.54;73.69
27685;BME280;46113;50.130;8.526;2022-09-13T06:02:26;99648.31;;;11.61;73.80
27685;BME280;46113;50.130;8.526;2022-09-13T06:04:53;99643.09;;;11.60;73.35
27685;BME280;46113;50.130;8.526;2022-09-13T06:07:19;99647.53;;;11.59;73.53
27685;BME280;46113;50.130;8.526;2022-09-13T06:09:46;99649.00;;;11.65;74.14
27685;BME280;46113;50.130;8.526;2022-09-13T06:12:13;99641.56;;;11.72;73.49
27685;BME280;46113;50.130;8.526;2022-09-13T06:14:41;99645.81;;;11.74;73.54
27685;BME280;46113;50.130;8.526;2022-09-13T06:17:09;99631.25;;;11.81;74.08
27685;BME280;46113;50.130;8.526;2022-09-13T06:19:36;99629.03;;;11.90;73.47
27685;BME280;46113;50.130;8.526;2022-09-13T06:22:02;99634.66;;;12.00;74.22
27685;BME280;46113;50.130;8.526;2022-09-13T06:24:29;99632.63;;;12.05;74.27
27685;BME280;46113;50.130;8.526;2022-09-13T06:26:56;99633.13;;;12.12;74.78
27685;BME280;46113;50.130;8.526;2022-09-13T06:29:24;99632.00;;;12.16;74.35
27685;BME280;46113;50.130;8.526;2022-09-13T06:31:53;99635.31;;;12.19;74.22
27685;BME280;46113;50.130;8.526;2022-09-13T06:34:19;99641.03;;;12.28;74.63
27685;BME280;46113;50.130;8.526;2022-09-13T06:36:46;99635.78;;;12.12;74.25
27685;BME280;46113;50.130;8.526;2022-09-13T06:39:12;99636.72;;;11.94;75.28
27685;BME280;46113;50.130;8.526;2022-09-13T06:41:39;99635.22;;;11.90;75.61
27685;BME280;46113;50.130;8.526;2022-09-13T06:44:05;99643.59;;;11.50;75.43
27685;BME280;46113;50.130;8.526;2022-09-13T06:46:33;99636.56;;;11.81;75.23
27685;BME280;46113;50.130;8.526;2022-09-13T06:49:02;99640.53;;;11.74;75.61
27685;BME280;46113;50.130;8.526;2022-09-13T06:51:29;99638.31;;;11.50;75.96
27685;BME280;46113;50.130;8.526;2022-09-13T06:53:57;99654.88;;;11.70;76.19
27685;BME280;46113;50.130;8.526;2022-09-13T06:56:31;99660.25;;;11.85;76.06
27685;BME280;46113;50.130;8.526;2022-09-13T06:59:00;99662.03;;;11.84;76.15
27685;BME280;46113;50.130;8.526;2022-09-13T07:01:31;99653.34;;;11.66;77.00
27685;BME280;46113;50.130;8.526;2022-09-13T07:04:00;99655.91;;;11.84;76.15
27685;BME280;46113;50.130;8.526;2022-09-13T07:06:29;99650.59;;;11.84;76.31
27685;BME280;46113;50.130;8.526;2022-09-13T07:08:58;99657.91;;;11.94;76.92
27685;BME280;46113;50.130;8.526;2022-09-13T07:11:31;99655.78;;;12.17;76.75
27685;BME280;46113;50.130;8.526;2022-09-13T07:13:58;99657.25;;;11.91;75.82
27685;BME280;46113;50.130;8.526;2022-09-13T07:16:28;99660.00;;;12.05;76.85
27685;BME280;46113;50.130;8.526;2022-09-13T07:18:57;99668.47;;;12.12;76.64
27685;BME280;46113;50.130;8.526;2022-09-13T07:21:25;99665.53;;;12.17;76.32
27685;BME280;46113;50.130;8.526;2022-09-13T07:23:52;99656.91;;;12.13;76.64
27685;BME280;46113;50.130;8.526;2022-09-13T07:26:19;99660.28;;;12.31;76.51
27685;BME280;46113;50.130;8.526;2022-09-13T07:28:48;99648.63;;;12.34;76.61
27685;BME280;46113;50.130;8.526;2022-09-13T07:31:45;99643.53;;;12.45;76.18
27685;BME280;46113;50.130;8.526;2022-09-13T07:34:17;99644.38;;;12.46;76.79
27685;BME280;46113;50.130;8.526;2022-09-13T07:36:44;99642.41;;;12.50;76.83
27685;BME280;46113;50.130;8.526;2022-09-13T07:39:13;99640.09;;;12.29;77.41
27685;BME280;46113;50.130;8.526;2022-09-13T07:41:46;99640.13;;;12.13;76.91
27685;BME280;46113;50.130;8.526;2022-09-13T07:44:13;99641.75;;;12.15;76.47
27685;BME280;46113;50.130;8.526;2022-09-13T07:46:41;99641.84;;;12.14;77.46
27685;BME280;46113;50.130;8.526;2022-09-13T07:49:12;99636.13;;;12.36;77.49
27685;BME280;46113;50.130;8.526;2022-09-13T07:51:41;99635.09;;;12.53;76.82
27685;BME280;46113;50.130;8.526;2022-09-13T07:54:13;99635.81;;;12.71;76.50
27685;BME280;46113;50.130;8.526;2022-09-13T07:56:40;99637.53;;;12.87;75.65
27685;BME280;46113;50.130;8.526;2022-09-13T07:59:12;99625.47;;;12.81;73.56
27685;BME280;46113;50.130;8.526;2022-09-13T08:01:47;99618.25;;;12.98;73.87
27685;BME280;46113;50.130;8.526;2022-09-13T08:04:17;99615.22;;;13.04;73.74
27685;BME280;46113;50.130;8.526;2022-09-13T08:06:45;99615.13;;;13.06;72.94
27685;BME280;46113;50.130;8.526;2022-09-13T08:09:13;99611.47;;;13.50;72.01
27685;BME280;46113;50.130;8.526;2022-09-13T08:14:09;99614.25;;;13.62;68.52
27685;BME280;46113;50.130;8.526;2022-09-13T08:16:36;99617.09;;;13.46;69.46
27685;BME280;46113;50.130;8.526;2022-09-13T08:19:05;99606.50;;;13.59;69.22
27685;BME280;46113;50.130;8.526;2022-09-13T08:21:37;99616.38;;;13.84;68.22
27685;BME280;46113;50.130;8.526;2022-09-13T08:24:06;99615.50;;;13.71;68.10
27685;BME280;46113;50.130;8.526;2022-09-13T08:26:34;99628.91;;;13.55;69.33
27685;BME280;46113;50.130;8.526;2022-09-13T08:29:03;99625.22;;;13.85;68.25
27685;BME280;46113;50.130;8.526;2022-09-13T08:31:30;99636.84;;;13.69;68.06
27685;BME280;46113;50.130;8.526;2022-09-13T08:33:57;99639.47;;;13.56;68.74
27685;BME280;46113;50.130;8.526;2022-09-13T08:36:25;99638.59;;;13.56;68.64
27685;BME280;46113;50.130;8.526;2022-09-13T08:38:54;99638.31;;;13.88;67.96
27685;BME280;46113;50.130;8.526;2022-09-13T08:45:14;99649.00;;;14.01;67.87
27685;BME280;46113;50.130;8.526;2022-09-13T08:47:52;99642.13;;;14.11;65.93
27685;BME280;46113;50.130;8.526;2022-09-13T08:50:32;99641.25;;;14.11;64.52
27685;BME280;46113;50.130;8.526;2022-09-13T08:53:18;99646.78;;;14.08;64.93
27685;BME280;46113;50.130;8.526;2022-09-13T08:56:00;99639.78;;;14.20;64.52
27685;BME280;46113;50.130;8.526;2022-09-13T09:07:17;99630.63;;;13.83;65.33
27685;BME280;46113;50.130;8.526;2022-09-13T09:09:49;99637.31;;;13.76;68.00
27685;BME280;46113;50.130;8.526;2022-09-13T09:12:23;99634.19;;;13.69;69.12
27685;BME280;46113;50.130;8.526;2022-09-13T09:14:59;99633.88;;;13.46;70.34
27685;BME280;46113;50.130;8.526;2022-09-13T09:17:40;99629.84;;;13.26;71.65
27685;BME280;46113;50.130;8.526;2022-09-13T09:20:23;99630.22;;;13.20;73.41
27685;BME280;46113;50.130;8.526;2022-09-13T09:22:52;99641.31;;;12.97;74.10
27685;BME280;46113;50.130;8.526;2022-09-13T09:25:22;99637.13;;;12.79;75.20
27685;BME280;46113;50.130;8.526;2022-09-13T09:28:18;99630.56;;;12.99;76.36
27685;BME280;46113;50.130;8.526;2022-09-13T09:31:00;99612.28;;;12.80;77.72
27685;BME280;46113;50.130;8.526;2022-09-13T09:36:16;99604.63;;;12.90;79.16
27685;BME280;46113;50.130;8.526;2022-09-13T09:38:45;99605.66;;;13.02;79.60
27685;BME280;46113;50.130;8.526;2022-09-13T09:41:29;99613.72;;;13.00;77.68
27685;BME280;46113;50.130;8.526;2022-09-13T09:44:15;99618.25;;;12.83;77.81
27685;BME280;46113;50.130;8.526;2022-09-13T09:46:45;99618.34;;;12.96;78.69
27685;BME280;46113;50.130;8.526;2022-09-13T09:49:25;99626.22;;;12.83;78.86
27685;BME280;46113;50.130;8.526;2022-09-13T09:52:18;99637.31;;;12.90;78.81
27685;BME280;46113;50.130;8.526;2022-09-13T09:54:49;99650.47;;;12.63;79.04
27685;BME280;46113;50.130;8.526;2022-09-13T09:57:15;99643.28;;;12.94;79.55
27685;BME280;46113;50.130;8.526;2022-09-13T09:59:45;99638.19;;;13.05;79.10
27685;BME280;46113;50.130;8.526;2022-09-13T10:02:17;99638.06;;;13.21;78.78
27685;BME280;46113;50.130;8.526;2022-09-13T10:04:56;99629.44;;;13.03;78.11
27685;BME280;46113;50.130;8.526;2022-09-13T10:07:32;99631.44;;;12.99;79.12
27685;BME280;46113;50.130;8.526;2022-09-13T10:10:20;99634.28;;;13.11;79.29
27685;BME280;46113;50.130;8.526;2022-09-13T10:12:52;99641.91;;;13.17;78.44
27685;BME280;46113;50.130;8.526;2022-09-13T10:15:25;99639.09;;;13.48;77.87
27685;BME280;46113;50.130;8.526;2022-09-13T10:18:13;99636.22;;;13.65;77.14
27685;BME280;46113;50.130;8.526;2022-09-13T10:23:36;99636.78;;;13.56;77.80
27685;BME280;46113;50.130;8.526;2022-09-13T10:26:14;99620.34;;;13.91;77.01
27685;BME280;46113;50.130;8.526;2022-09-13T10:31:34;99629.84;;;14.36;76.23
27685;BME280;46113;50.130;8.526;2022-09-13T10:34:16;99643.53;;;14.30;74.27
27685;BME280;46113;50.130;8.526;2022-09-13T10:36:56;99644.19;;;14.34;74.48
27685;BME280;46113;50.130;8.526;2022-09-13T10:39:24;99638.03;;;14.59;74.51
27685;BME280;46113;50.130;8.526;2022-09-13T10:42:00;99638.56;;;14.38;74.52
27685;BME280;46113;50.130;8.526;2022-09-13T10:44:40;99635.06;;;14.77;74.43
27685;BME280;46113;50.130;8.526;2022-09-13T10:47:16;99634.53;;;14.71;73.24
27685;BME280;46113;50.130;8.526;2022-09-13T10:57:49;99639.78;;;15.36;71.35
27685;BME280;46113;50.130;8.526;2022-09-13T11:00:22;99635.44;;;15.60;69.30
27685;BME280;46113;50.130;8.526;2022-09-13T11:05:56;99628.03;;;15.02;70.02
27685;BME280;46113;50.130;8.526;2022-09-13T11:08:45;99632.00;;;15.33;69.21
27685;BME280;46113;50.130;8.526;2022-09-13T11:17:51;99631.75;;;16.81;64.39
27685;BME280;46113;50.130;8.526;2022-09-13T11:20:40;99622.31;;;15.94;65.06
27685;BME280;46113;50.130;8.526;2022-09-13T11:28:59;99628.03;;;16.37;64.23
27685;BME280;46113;50.130;8.526;2022-09-13T11:43:21;99596.56;;;16.18;62.00
27685;BME280;46113;50.130;8.526;2022-09-13T11:48:55;99583.56;;;16.13;62.08
27685;BME280;46113;50.130;8.526;2022-09-13T11:57:34;99586.56;;;16.67;60.90
27685;BME280;46113;50.130;8.526;2022-09-13T12:05:17;99586.00;;;16.98;59.88
27685;BME280;46113;50.130;8.526;2022-09-13T12:07:56;99573.81;;;16.71;59.43
27685;BME280;46113;50.130;8.526;2022-09-13T12:10:29;99578.44;;;16.91;59.35
27685;BME280;46113;50.130;8.526;2022-09-13T12:13:01;99577.13;;;16.97;59.32
27685;BME280;46113;50.130;8.526;2022-09-13T12:15:35;99569.19;;;17.07;60.08
27685;BME280;46113;50.130;8.526;2022-09-13T12:21:08;99556.34;;;17.89;57.71
27685;BME280;46113;50.130;8.526;2022-09-13T12:23:48;99554.84;;;18.39;56.75
27685;BME280;46113;50.130;8.526;2022-09-13T12:26:36;99550.38;;;18.80;54.12
27685;BME280;46113;50.130;8.526;2022-09-13T12:31:44;99538.78;;;18.39;54.50
27685;BME280;46113;50.130;8.526;2022-09-13T12:34:20;99550.25;;;17.87;56.99
27685;BME280;46113;50.130;8.526;2022-09-13T12:36:54;99542.28;;;17.76;56.79
27685;BME280;46113;50.130;8.526;2022-09-13T12:39:30;99540.88;;;17.93;57.32
27685;BME280;46113;50.130;8.526;2022-09-13T12:53:45;99539.59;;;17.43;59.40
27685;BME280;46113;50.130;8.526;2022-09-13T12:56:23;99544.94;;;16.99;60.60
27685;BME280;46113;50.130;8.526;2022-09-13T12:59:17;99545.06;;;16.97;59.92
27685;BME280;46113;50.130;8.526;2022-09-13T13:01:48;99536.81;;;17.00;60.02
27685;BME280;46113;50.130;8.526;2022-09-13T13:04:33;99541.66;;;16.95;60.68
27685;BME280;46113;50.130;8.526;2022-09-13T13:07:04;99535.00;;;17.33;60.21
27685;BME280;46113;50.130;8.526;2022-09-13T13:09:50;99533.72;;;17.16;60.07
27685;BME280;46113;50.130;8.526;2022-09-13T13:12:38;99540.09;;;17.37;59.80
27685;BME280;46113;50.130;8.526;2022-09-13T13:15:52;99539.56;;;17.87;57.93
27685;BME280;46113;50.130;8.526;2022-09-13T13:17:55;99540.25;;;18.10;57.53
27685;BME280;46113;50.130;8.526;2022-09-13T13:31:43;99527.63;;;17.91;58.05
27685;BME280;46113;50.130;8.526;2022-09-13T13:46:53;99497.19;;;18.13;56.22
27685;BME280;46113;50.130;8.526;2022-09-13T13:57:40;99500.13;;;19.24;53.28
27685;BME280;46113;50.130;8.526;2022-09-13T14:00:18;99489.19;;;18.86;54.09
27685;BME280;46113;50.130;8.526;2022-09-13T14:05:24;99484.03;;;18.32;56.19
27685;BME280;46113;50.130;8.526;2022-09-13T14:14:38;99468.38;;;18.58;56.20
27685;BME280;46113;50.130;8.526;2022-09-13T14:20:11;99479.78;;;18.50;55.26
27685;BME280;46113;50.130;8.526;2022-09-13T14:22:38;99479.78;;;18.29;56.01
27685;BME280;46113;50.130;8.526;2022-09-13T14:27:40;99485.34;;;18.06;57.33
27685;BME280;46113;50.130;8.526;2022-09-13T14:30:30;99476.06;;;17.89;59.93
27685;BME280;46113;50.130;8.526;2022-09-13T14:33:03;99468.69;;;17.81;60.10
27685;BME280;46113;50.130;8.526;2022-09-13T14:35:36;99477.19;;;17.65;61.18
27685;BME280;46113;50.130;8.526;2022-09-13T14:38:15;99477.34;;;17.52;61.87
27685;BME280;46113;50.130;8.526;2022-09-13T14:40:52;99476.13;;;17.45;62.92
27685;BME280;46113;50.130;8.526;2022-09-13T14:43:25;99466.09;;;17.37;63.50
27685;BME280;46113;50.130;8.526;2022-09-13T14:48:41;99447.59;;;17.13;66.10
27685;BME280;46113;50.130;8.526;2022-09-13T14:53:45;99449.72;;;16.86;66.93
27685;BME280;46113;50.130;8.526;2022-09-13T14:56:36;99446.16;;;17.08;66.84
27685;BME280;46113;50.130;8.526;2022-09-13T14:59:14;99443.00;;;17.15;66.52
27685;BME280;46113;50.130;8.526;2022-09-13T15:01:44;99443.06;;;17.25;67.91
27685;BME280;46113;50.130;8.526;2022-09-13T15:04:11;99441.59;;;16.88;68.00
27685;BME280;46113;50.130;8.526;2022-09-13T15:06:39;99439.91;;;16.87;68.14
27685;BME280;46113;50.130;8.526;2022-09-13T15:14:36;99425.13;;;16.71;67.36
27685;BME280;46113;50.130;8.526;2022-09-13T15:17:13;99422.81;;;16.55;68.34
27685;BME280;46113;50.130;8.526;2022-09-13T15:19:41;99425.72;;;16.63;67.65
27685;BME280;46113;50.130;8.526;2022-09-13T15:22:28;99421.72;;;16.58;68.54
27685;BME280;46113;50.130;8.526;2022-09-13T15:25:00;99422.59;;;16.58;68.94
27685;BME280;46113;50.130;8.526;2022-09-13T15:29:57;99422.00;;;16.54;69.10
27685;BME280;46113;50.130;8.526;2022-09-13T15:32:30;99422.00;;;16.32;69.15
27685;BME280;46113;50.130;8.526;2022-09-13T15:35:01;99418.72;;;16.39;69.32
27685;BME280;46113;50.130;8.526;2022-09-13T15:37:34;99413.41;;;16.16;69.37
27685;BME280;46113;50.130;8.526;2022-09-13T15:40:17;99413.75;;;16.35;69.11
27685;BME280;46113;50.130;8.526;2022-09-13T15:42:50;99409.25;;;16.35;69.24
27685;BME280;46113;50.130;8.526;2022-09-13T15:45:19;99411.44;;;16.30;69.09
27685;BME280;46113;50.130;8.526;2022-09-13T15:47:48;99406.22;;;16.40;69.33
27685;BME280;46113;50.130;8.526;2022-09-13T15:50:33;99405.81;;;16.67;68.63
27685;BME280;46113;50.130;8.526;2022-09-13T15:53:09;99409.38;;;16.45;68.26
27685;BME280;46113;50.130;8.526;2022-09-13T15:55:38;99408.50;;;16.56;68.44
27685;BME280;46113;50.130;8.526;2022-09-13T15:58:04;99403.00;;;16.69;68.37
27685;BME280;46113;50.130;8.526;2022-09-13T16:00:31;99399.50;;;16.80;68.89
27685;BME280;46113;50.130;8.526;2022-09-13T16:02:57;99400.84;;;16.63;68.41
27685;BME280;46113;50.130;8.526;2022-09-13T16:05:25;99409.13;;;16.48;68.49
27685;BME280;46113;50.130;8.526;2022-09-13T16:07:52;99400.16;;;16.49;69.02
27685;BME280;46113;50.130;8.526;2022-09-13T16:10:21;99398.44;;;16.48;68.74
27685;BME280;46113;50.130;8.526;2022-09-13T16:12:48;99399.91;;;16.41;68.72
27685;BME280;46113;50.130;8.526;2022-09-13T16:15:15;99394.56;;;16.41;69.20
27685;BME280;46113;50.130;8.526;2022-09-13T16:17:42;99393.38;;;16.22;69.05
27685;BME280;46113;50.130;8.526;2022-09-13T16:20:13;99389.00;;;16.44;68.91
27685;BME280;46113;50.130;8.526;2022-09-13T16:22:40;99381.44;;;16.61;68.60
27685;BME280;46113;50.130;8.526;2022-09-13T16:25:10;99384.63;;;16.54;68.57
27685;BME280;46113;50.130;8.526;2022-09-13T16:27:38;99376.28;;;16.69;68.16
27685;BME280;46113;50.130;8.526;2022-09-13T16:30:06;99375.22;;;16.83;67.45
27685;BME280;46113;50.130;8.526;2022-09-13T16:32:33;99376.66;;;16.87;68.43
27685;BME280;46113;50.130;8.526;2022-09-13T16:34:59;99373.47;;;16.93;69.12
27685;BME280;46113;50.130;8.526;2022-09-13T16:37:26;99370.97;;;16.80;69.30
27685;BME280;46113;50.130;8.526;2022-09-13T16:39:55;99385.56;;;16.65;69.30
27685;BME280;46113;50.130;8.526;2022-09-13T16:42:23;99391.56;;;16.23;70.97
27685;BME280;46113;50.130;8.526;2022-09-13T16:44:49;99397.25;;;16.07;71.32
27685;BME280;46113;50.130;8.526;2022-09-13T16:47:16;99398.72;;;15.99;71.29
27685;BME280;46113;50.130;8.526;2022-09-13T16:49:43;99389.84;;;15.76;72.33
27685;BME280;46113;50.130;8.526;2022-09-13T16:52:09;99394.56;;;15.84;72.06
27685;BME280;46113;50.130;8.526;2022-09-13T16:54:37;99396.78;;;15.90;71.76
27685;BME280;46113;50.130;8.526;2022-09-13T16:57:06;99400.84;;;15.60;73.36
27685;BME280;46113;50.130;8.526;2022-09-13T16:59:35;99399.16;;;15.82;72.57
27685;BME280;46113;50.130;8.526;2022-09-13T17:02:02;99400.16;;;15.92;72.04
27685;BME280;46113;50.130;8.526;2022-09-13T17:04:29;99395.56;;;15.94;72.08
27685;BME280;46113;50.130;8.526;2022-09-13T17:06:55;99400.44;;;15.89;72.27
27685;BME280;46113;50.130;8.526;2022-09-13T17:09:22;99396.41;;;15.95;72.18
27685;BME280;46113;50.130;8.526;2022-09-13T17:11:52;99395.19;;;16.10;72.34
27685;BME280;46113;50.130;8.526;2022-09-13T17:14:19;99408.06;;;16.16;72.32
27685;BME280;46113;50.130;8.526;2022-09-13T17:16:52;99410.84;;;16.15;71.71
27685;BME280;46113;50.130;8.526;2022-09-13T17:19:25;99415.69;;;16.21;72.00
27685;BME280;46113;50.130;8.526;2022-09-13T17:21:52;99418.00;;;16.03;72.38
27685;BME280;46113;50.130;8.526;2022-09-13T17:24:23;99416.31;;;16.13;72.02
27685;BME280;46113;50.130;8.526;2022-09-13T17:26:50;99415.47;;;16.24;72.96
27685;BME280;46113;50.130;8.526;2022-09-13T17:29:17;99408.19;;;16.26;73.71
27685;BME280;46113;50.130;8.526;2022-09-13T17:31:44;99411.59;;;16.28;73.56
27685;BME280;46113;50.130;8.526;2022-09-13T17:34:11;99411.31;;;16.32;73.77
27685;BME280;46113;50.130;8.526;2022-09-13T17:36:41;99412.78;;;16.36;74.08
27685;BME280;46113;50.130;8.526;2022-09-13T17:39:08;99394.34;;;16.33;74.56
27685;BME280;46113;50.130;8.526;2022-09-13T17:41:35;99400.41;;;16.23;75.33
27685;BME280;46113;50.130;8.526;2022-09-13T17:44:02;99412.19;;;15.86;75.85
27685;BME280;46113;50.130;8.526;2022-09-13T17:46:29;99423.63;;;15.64;77.26
27685;BME280;46113;50.130;8.526;2022-09-13T17:48:58;99420.69;;;15.56;77.85
27685;BME280;46113;50.130;8.526;2022-09-13T17:51:29;99423.34;;;15.56;77.87
27685;BME280;46113;50.130;8.526;2022-09-13T17:53:58;99415.75;;;15.74;76.65
27685;BME280;46113;50.130;8.526;2022-09-13T17:56:28;99416.81;;;15.60;77.74
27685;BME280;46113;50.130;8.526;2022-09-13T17:59:05;99409.59;;;15.85;77.70
27685;BME280;46113;50.130;8.526;2022-09-13T18:01:38;99393.63;;;15.96;78.61
27685;BME280;46113;50.130;8.526;2022-09-13T18:04:05;99399.72;;;15.98;79.05
27685;BME280;46113;50.130;8.526;2022-09-13T18:06:38;99409.81;;;15.82;79.34
27685;BME280;46113;50.130;8.526;2022-09-13T18:09:12;99412.22;;;15.62;80.24
27685;BME280;46113;50.130;8.526;2022-09-13T18:11:39;99410.13;;;15.54;81.05
27685;BME280;46113;50.130;8.526;2022-09-13T18:14:10;99418.22;;;15.41;81.12
27685;BME280;46113;50.130;8.526;2022-09-13T18:16:38;99414.16;;;15.60;80.40
27685;BME280;46113;50.130;8.526;2022-09-13T18:19:04;99411.72;;;15.57;79.96
27685;BME280;46113;50.130;8.526;2022-09-13T18:21:31;99414.28;;;15.58;80.14
27685;BME280;46113;50.130;8.526;2022-09-13T18:23:58;99400.34;;;15.66;80.57
27685;BME280;46113;50.130;8.526;2022-09-13T18:26:34;99396.97;;;15.75;81.21
27685;BME280;46113;50.130;8.526;2022-09-13T18:29:04;99395.16;;;15.76;81.79
27685;BME280;46113;50.130;8.526;2022-09-13T18:31:33;99384.13;;;15.69;82.18
27685;BME280;46113;50.130;8.526;2022-09-13T18:34:06;99375.16;;;15.70;82.22
27685;BME280;46113;50.130;8.526;2022-09-13T18:36:39;99367.16;;;15.70;82.47
27685;BME280;46113;50.130;8.526;2022-09-13T18:39:32;99363.28;;;15.74;82.25
27685;BME280;46113;50.130;8.526;2022-09-13T18:41:58;99367.38;;;15.67;82.56
27685;BME280;46113;50.130;8.526;2022-09-13T18:44:28;99368.44;;;15.30;84.03
27685;BME280;46113;50.130;8.526;2022-09-13T18:47:03;99382.13;;;14.77;87.30
27685;BME280;46113;50.130;8.526;2022-09-13T18:49:30;99380.03;;;14.56;88.36
27685;BME280;46113;50.130;8.526;2022-09-13T18:51:59;99383.13;;;14.87;87.48
27685;BME280;46113;50.130;8.526;2022-09-13T18:54:26;99381.34;;;15.12;86.32
27685;BME280;46113;50.130;8.526;2022-09-13T18:56:53;99395.59;;;15.11;86.40
27685;BME280;46113;50.130;8.526;2022-09-13T18:59:20;99384.50;;;15.17;86.36
27685;BME280;46113;50.130;8.526;2022-09-13T19:01:46;99391.13;;;15.12;85.26
27685;BME280;46113;50.130;8.526;2022-09-13T19:04:18;99384.53;;;15.29;85.06
27685;BME280;46113;50.130;8.526;2022-09-13T19:06:50;99393.97;;;14.97;86.72
27685;BME280;46113;50.130;8.526;2022-09-13T19:09:18;99400.25;;;14.71;87.78
27685;BME280;46113;50.130;8.526;2022-09-13T19:11:50;99409.47;;;14.79;87.30
27685;BME280;46113;50.130;8.526;2022-09-13T19:14:22;99415.47;;;14.94;85.84
27685;BME280;46113;50.130;8.526;2022-09-13T19:16:52;99414.13;;;14.88;86.66
27685;BME280;46113;50.130;8.526;2022-09-13T19:19:19;99406.84;;;14.90;86.69
27685;BME280;46113;50.130;8.526;2022-09-13T19:21:46;99410.34;;;15.04;86.29
27685;BME280;46113;50.130;8.526;2022-09-13T19:24:13;99407.13;;;15.12;85.97
27685;BME280;46113;50.130;8.526;2022-09-13T19:26:47;99401.94;;;15.21;85.81
27685;BME280;46113;50.130;8.526;2022-09-13T19:29:16;99397.09;;;15.27;85.50
27685;BME280;46113;50.130;8.526;2022-09-13T19:31:45;99394.44;;;15.27;86.00
27685;BME280;46113;50.130;8.526;2022-09-13T19:34:17;99395.06;;;15.30;85.31
27685;BME280;46113;50.130;8.526;2022-09-13T19:36:45;99388.53;;;15.34;85.62
27685;BME280;46113;50.130;8.526;2022-09-13T19:39:12;99381.59;;;15.32;85.72
27685;BME280;46113;50.130;8.526;2022-09-13T19:41:39;99383.94;;;15.36;85.67
27685;BME280;46113;50.130;8.526;2022-09-13T19:44:07;99387.19;;;15.29;85.28
27685;BME280;46113;50.130;8.526;2022-09-13T19:46:36;99392.25;;;14.96;86.44
27685;BME280;46113;50.130;8.526;2022-09-13T19:49:05;99395.59;;;15.11;85.54
27685;BME280;46113;50.130;8.526;2022-09-13T19:54:53;99406.03;;;15.14;85.87
27685;BME280;46113;50.130;8.526;2022-09-13T19:57:24;99404.84;;;15.18;85.38
27685;BME280;46113;50.130;8.526;2022-09-13T19:59:51;99395.66;;;15.22;84.98
27685;BME280;46113;50.130;8.526;2022-09-13T20:02:22;99400.72;;;15.26;84.90
27685;BME280;46113;50.130;8.526;2022-09-13T20:04:48;99399.91;;;15.25;85.42
27685;BME280;46113;50.130;8.526;2022-09-13T20:07:15;99401.72;;;15.24;85.54
27685;BME280;46113;50.130;8.526;2022-09-13T20:09:41;99404.84;;;15.18;86.76